createdAt,value
2023-05-03T00:00:56.167Z,12.57
2023-05-03T00:03:23.712Z,12.46
2023-05-03T00:05:50.540Z,12.38
2023-05-03T00:08:17.179Z,12.10
2023-05-03T00:10:43.796Z,12.19
2023-05-03T00:13:10.538Z,12.19
2023-05-03T00:15:37.184Z,11.88
2023-05-03T00:18:03.843Z,11.79
2023-05-03T00:20:30.609Z,11.64
2023-05-03T00:22:57.323Z,11.45
2023-05-03T00:25:24.077Z,11.55
2023-05-03T00:27:50.740Z,11.82
2023-05-03T00:30:18.958Z,12.00
2023-05-03T00:32:45.902Z,11.89
2023-05-03T00:35:12.591Z,11.76
2023-05-03T00:37:39.436Z,11.70
2023-05-03T00:40:07.345Z,11.51
2023-05-03T00:42:36.632Z,11.37
2023-05-03T00:45:05.953Z,11.82
2023-05-03T00:47:33.378Z,11.66
2023-05-03T00:50:01.314Z,11.76
2023-05-03T00:52:31.516Z,11.80
2023-05-03T00:54:58.573Z,11.65
2023-05-03T00:57:27.229Z,11.65
2023-05-03T00:59:56.582Z,11.76
2023-05-03T01:02:24.736Z,11.78
2023-05-03T01:04:53.458Z,11.38
2023-05-03T01:07:45.257Z,11.65
2023-05-03T01:10:23.286Z,11.48
2023-05-03T01:13:06.714Z,11.66
2023-05-03T01:15:44.841Z,11.33
2023-05-03T01:18:16.094Z,11.42
2023-05-03T01:20:46.755Z,11.13
2023-05-03T01:23:32.324Z,11.49
2023-05-03T01:25:59.126Z,11.64
2023-05-03T01:28:25.800Z,11.39
2023-05-03T01:30:54.101Z,11.46
2023-05-03T01:33:40.582Z,11.43
2023-05-03T01:36:23.005Z,11.40
2023-05-03T01:38:50.732Z,11.20
2023-05-03T01:41:19.498Z,11.13
2023-05-03T01:43:47.809Z,11.20
2023-05-03T01:46:15.753Z,11.40
2023-05-03T01:48:44.984Z,11.11
2023-05-03T01:51:11.605Z,11.15
2023-05-03T01:53:38.311Z,11.07
2023-05-03T01:56:05.634Z,11.06
2023-05-03T01:58:33.049Z,11.24
2023-05-03T02:00:59.701Z,11.34
2023-05-03T02:03:26.476Z,11.33
2023-05-03T02:05:53.181Z,11.34
2023-05-03T02:08:19.797Z,10.92
2023-05-03T02:10:46.611Z,11.06
2023-05-03T02:13:13.303Z,11.26
2023-05-03T02:15:39.905Z,10.83
2023-05-03T02:18:08.244Z,10.77
2023-05-03T02:20:37.819Z,10.99
2023-05-03T02:23:04.732Z,11.04
2023-05-03T02:25:31.887Z,10.74
2023-05-03T02:27:58.617Z,10.87
2023-05-03T02:30:25.288Z,10.97
2023-05-03T02:32:52.071Z,10.94
2023-05-03T02:35:20.100Z,10.87
2023-05-03T02:37:46.878Z,10.72
2023-05-03T02:40:14.060Z,10.83
2023-05-03T02:42:42.890Z,10.81
2023-05-03T02:45:10.596Z,10.66
2023-05-03T02:47:37.427Z,10.88
2023-05-03T02:50:04.658Z,10.85
2023-05-03T02:52:35.408Z,10.58
2023-05-03T02:55:02.145Z,10.69
2023-05-03T02:57:30.217Z,10.84
2023-05-03T02:59:58.631Z,10.73
2023-05-03T03:02:26.554Z,10.63
2023-05-03T03:04:53.993Z,10.52
2023-05-03T03:07:20.813Z,10.49
2023-05-03T03:09:47.547Z,10.38
2023-05-03T03:12:14.330Z,10.56
2023-05-03T03:14:41.665Z,10.65
2023-05-03T03:17:09.953Z,10.65
2023-05-03T03:19:36.835Z,10.63
2023-05-03T03:22:03.472Z,10.76
2023-05-03T03:24:31.733Z,10.64
2023-05-03T03:26:58.588Z,10.55
2023-05-03T03:29:26.119Z,10.32
2023-05-03T03:31:52.903Z,10.23
2023-05-03T03:34:19.986Z,10.24
2023-05-03T03:36:46.878Z,10.12
2023-05-03T03:39:14.129Z,10.08
2023-05-03T03:41:43.657Z,9.83
2023-05-03T03:44:11.016Z,10.03
2023-05-03T03:46:38.518Z,10.12
2023-05-03T03:49:05.258Z,9.76
2023-05-03T03:51:32.175Z,9.81
2023-05-03T03:53:59.986Z,9.61
2023-05-03T03:56:30.648Z,10.19
2023-05-03T03:58:57.884Z,10.15
2023-05-03T04:01:25.206Z,10.12
2023-05-03T04:03:52.449Z,9.94
2023-05-03T04:06:19.219Z,10.00
2023-05-03T04:08:47.101Z,9.71
2023-05-03T04:11:15.495Z,9.82
2023-05-03T04:13:49.369Z,9.86
2023-05-03T04:16:16.985Z,9.65
2023-05-03T04:18:45.350Z,9.86
2023-05-03T04:21:12.126Z,10.08
2023-05-03T04:23:40.338Z,10.25
2023-05-03T04:26:17.044Z,9.71
2023-05-03T04:28:52.445Z,10.07
2023-05-03T04:31:21.882Z,10.00
2023-05-03T04:33:52.300Z,10.33
2023-05-03T04:36:19.213Z,10.02
2023-05-03T04:38:47.862Z,9.73
2023-05-03T04:41:16.120Z,9.41
2023-05-03T04:43:46.568Z,9.75
2023-05-03T04:46:13.746Z,9.93
2023-05-03T04:48:40.456Z,10.21
2023-05-03T04:51:07.932Z,10.30
2023-05-03T04:53:35.149Z,10.02
2023-05-03T04:56:09.661Z,10.15
2023-05-03T04:58:39.008Z,10.35
2023-05-03T05:01:07.564Z,10.20
2023-05-03T05:03:34.825Z,10.12
2023-05-03T05:06:09.944Z,10.05
2023-05-03T05:08:38.726Z,10.46
2023-05-03T05:11:08.147Z,10.17
2023-05-03T05:13:35.443Z,10.24
2023-05-03T05:16:02.348Z,10.53
2023-05-03T05:18:29.226Z,10.43
2023-05-03T05:20:57.141Z,10.41
2023-05-03T05:23:24.052Z,10.47
2023-05-03T05:25:51.543Z,10.49
2023-05-03T05:28:18.304Z,10.39
2023-05-03T05:30:46.277Z,10.32
2023-05-03T05:33:13.217Z,10.48
2023-05-03T05:35:40.240Z,10.51
2023-05-03T05:38:07.460Z,10.42
2023-05-03T05:40:34.703Z,10.37
2023-05-03T05:43:02.015Z,10.55
2023-05-03T05:45:30.966Z,10.37
2023-05-03T05:47:58.292Z,10.95
2023-05-03T05:50:25.445Z,10.51
2023-05-03T05:53:01.824Z,11.02
2023-05-03T05:55:33.778Z,11.38
2023-05-03T05:58:01.242Z,11.64
2023-05-03T06:00:36.182Z,11.25
2023-05-03T06:03:03.120Z,11.60
2023-05-03T06:05:30.445Z,11.63
2023-05-03T06:07:57.177Z,11.86
2023-05-03T06:10:23.922Z,11.88
2023-05-03T06:12:53.001Z,12.09
2023-05-03T06:15:23.613Z,11.72
2023-05-03T06:17:50.618Z,11.95
2023-05-03T06:20:18.139Z,12.39
2023-05-03T06:22:44.842Z,12.33
2023-05-03T06:25:15.457Z,12.45
2023-05-03T06:27:45.624Z,12.24
2023-05-03T06:30:12.849Z,12.66
2023-05-03T06:32:42.097Z,12.09
2023-05-03T06:35:09.457Z,12.55
2023-05-03T06:37:38.125Z,12.70
2023-05-03T06:40:07.202Z,12.90
2023-05-03T06:42:33.795Z,13.18
2023-05-03T06:45:08.322Z,13.03
2023-05-03T06:47:37.658Z,13.18
2023-05-03T06:50:05.221Z,13.21
2023-05-03T06:52:32.779Z,13.42
2023-05-03T06:54:59.684Z,13.34
2023-05-03T06:57:28.651Z,13.44
2023-05-03T06:59:55.858Z,13.22
2023-05-03T07:02:23.150Z,13.25
2023-05-03T07:04:49.925Z,13.10
2023-05-03T07:07:16.845Z,13.06
2023-05-03T07:09:44.002Z,13.23
2023-05-03T07:12:11.393Z,13.06
2023-05-03T07:14:39.755Z,13.39
2023-05-03T07:17:06.655Z,12.99
2023-05-03T07:19:33.392Z,13.09
2023-05-03T07:22:00.277Z,13.29
2023-05-03T07:24:27.040Z,13.41
2023-05-03T07:26:53.964Z,13.36
2023-05-03T07:29:21.640Z,13.62
2023-05-03T07:31:48.940Z,13.41
2023-05-03T07:34:16.361Z,13.89
2023-05-03T07:36:43.091Z,14.05
2023-05-03T07:39:09.932Z,14.17
2023-05-03T07:41:37.001Z,14.29
2023-05-03T07:44:03.917Z,14.39
2023-05-03T07:46:34.889Z,14.68
2023-05-03T07:49:05.339Z,14.76
2023-05-03T07:51:36.998Z,14.49
2023-05-03T07:54:05.440Z,14.86
2023-05-03T07:56:32.193Z,15.34
2023-05-03T07:59:08.201Z,14.72
2023-05-03T08:01:36.646Z,14.91
2023-05-03T08:04:04.563Z,14.91
2023-05-03T08:06:32.529Z,15.41
2023-05-03T08:08:59.247Z,15.62
2023-05-03T08:11:27.498Z,15.72
2023-05-03T08:13:54.164Z,15.17
2023-05-03T08:16:21.406Z,14.90
2023-05-03T08:18:48.254Z,14.68
2023-05-03T08:21:16.756Z,14.38
2023-05-03T08:23:43.436Z,14.51
2023-05-03T08:26:10.797Z,14.63
2023-05-03T08:28:37.972Z,14.91
2023-05-03T08:31:04.993Z,14.98
2023-05-03T08:33:31.826Z,15.15
2023-05-03T08:35:58.590Z,15.30
2023-05-03T08:38:25.632Z,15.49
2023-05-03T08:40:55.594Z,15.01
2023-05-03T08:43:23.857Z,15.78
2023-05-03T08:45:51.341Z,15.88
2023-05-03T08:48:18.380Z,15.87
2023-05-03T08:50:45.039Z,15.85
2023-05-03T08:53:11.973Z,15.60
2023-05-03T08:55:38.838Z,15.64
2023-05-03T08:58:10.679Z,15.51
2023-05-03T09:00:38.379Z,15.86
2023-05-03T09:03:05.260Z,15.78
2023-05-03T09:05:34.747Z,15.74
2023-05-03T09:08:10.403Z,15.65
2023-05-03T09:10:42.139Z,15.97
2023-05-03T09:13:10.400Z,16.40
2023-05-03T09:15:37.577Z,16.58
2023-05-03T09:18:12.831Z,16.69
2023-05-03T09:20:41.762Z,16.85
2023-05-03T09:23:09.958Z,16.29
2023-05-03T09:25:44.446Z,16.21
2023-05-03T09:28:11.906Z,16.03
2023-05-03T09:30:38.726Z,16.33
2023-05-03T09:33:05.810Z,16.60
2023-05-03T09:35:32.581Z,16.56
2023-05-03T09:38:00.330Z,16.82
2023-05-03T09:40:29.062Z,16.33
2023-05-03T09:43:09.492Z,16.87
2023-05-03T09:45:37.675Z,16.93
2023-05-03T09:48:06.561Z,16.60
2023-05-03T09:50:34.265Z,16.42
2023-05-03T09:53:03.642Z,16.62
2023-05-03T09:55:39.475Z,16.85
2023-05-03T09:58:07.716Z,16.91
2023-05-03T10:00:39.075Z,16.66
2023-05-03T10:03:11.256Z,16.89
2023-05-03T10:05:46.348Z,17.09
2023-05-03T10:08:33.378Z,16.95
2023-05-03T10:11:03.652Z,16.88
2023-05-03T10:13:31.813Z,16.75
2023-05-03T10:16:12.691Z,16.92
2023-05-03T10:18:47.935Z,17.07
2023-05-03T10:21:21.715Z,17.31
2023-05-03T10:24:15.757Z,17.54
2023-05-03T10:26:50.135Z,17.40
2023-05-03T10:29:35.997Z,17.44
2023-05-03T10:32:06.148Z,17.19
2023-05-03T10:34:39.532Z,17.35
2023-05-03T10:37:11.478Z,17.46
2023-05-03T10:39:44.468Z,17.17
2023-05-03T10:42:11.090Z,17.18
2023-05-03T10:44:51.326Z,17.34
2023-05-03T10:47:19.974Z,17.28
2023-05-03T10:49:46.637Z,17.03
2023-05-03T10:52:35.356Z,17.07
2023-05-03T10:55:02.867Z,16.99
2023-05-03T10:57:32.266Z,17.13
2023-05-03T10:59:59.940Z,17.27
2023-05-03T11:02:33.748Z,17.29
2023-05-03T11:05:05.331Z,17.29
2023-05-03T11:07:32.400Z,17.56
2023-05-03T11:09:59.039Z,17.42
2023-05-03T11:12:25.691Z,17.60
2023-05-03T11:14:52.480Z,17.43
2023-05-03T11:17:19.174Z,17.36
2023-05-03T11:19:46.430Z,17.44
2023-05-03T11:22:13.225Z,17.56
2023-05-03T11:24:39.827Z,17.38
2023-05-03T11:27:08.285Z,17.33
2023-05-03T11:29:36.081Z,17.54
2023-05-03T11:32:03.067Z,17.51
2023-05-03T11:34:29.988Z,17.62
2023-05-03T11:36:57.977Z,17.66
2023-05-03T11:39:24.888Z,17.36
2023-05-03T11:42:02.763Z,17.56
2023-05-03T11:44:29.435Z,17.71
2023-05-03T11:46:56.570Z,17.60
2023-05-03T11:49:24.229Z,17.56
2023-05-03T11:51:54.620Z,17.68
2023-05-03T11:54:26.753Z,17.62
2023-05-03T11:56:59.033Z,17.56
2023-05-03T11:59:38.784Z,17.57
2023-05-03T12:02:07.590Z,17.73
2023-05-03T12:04:34.882Z,17.48
2023-05-03T12:07:03.484Z,17.41
2023-05-03T12:09:31.879Z,17.38
2023-05-03T12:11:59.551Z,17.50
2023-05-03T12:14:29.532Z,17.57
2023-05-03T12:16:59.837Z,17.55
2023-05-03T12:19:34.062Z,17.60
2023-05-03T12:22:17.910Z,17.61
2023-05-03T12:24:49.802Z,17.75
2023-05-03T12:27:19.083Z,17.63
2023-05-03T12:29:47.616Z,17.60
2023-05-03T12:32:14.977Z,17.52
2023-05-03T12:34:42.446Z,17.64
2023-05-03T12:37:11.678Z,17.55
2023-05-03T12:39:40.436Z,17.63
2023-05-03T12:42:08.924Z,17.84
2023-05-03T12:44:42.717Z,17.66
2023-05-03T12:47:11.000Z,17.60
2023-05-03T12:49:39.209Z,17.74
2023-05-03T12:52:35.229Z,17.80
2023-05-03T12:54:55.747Z,18.03
2023-05-03T12:57:23.940Z,18.07
2023-05-03T12:59:54.953Z,18.02
2023-05-03T13:05:11.844Z,18.18
2023-05-03T13:07:43.183Z,18.24
2023-05-03T13:12:40.679Z,18.33
2023-05-03T13:15:08.470Z,18.33
2023-05-03T13:17:35.389Z,18.32
2023-05-03T13:20:02.460Z,18.29
2023-05-03T13:22:31.939Z,18.52
2023-05-03T13:24:58.941Z,18.59
2023-05-03T13:27:25.770Z,18.65
2023-05-03T13:29:52.519Z,18.71
2023-05-03T13:32:19.489Z,18.85
2023-05-03T13:34:46.237Z,18.94
2023-05-03T13:37:18.144Z,18.94
2023-05-03T13:39:48.176Z,18.85
2023-05-03T13:42:14.918Z,19.03
2023-05-03T13:44:42.452Z,19.10
2023-05-03T13:47:09.134Z,19.08
2023-05-03T13:49:36.099Z,19.16
2023-05-03T13:52:03.330Z,19.23
2023-05-03T13:54:31.581Z,19.25
2023-05-03T13:56:59.361Z,19.45
2023-05-03T13:59:26.206Z,19.60
2023-05-03T14:01:52.868Z,19.63
2023-05-03T14:04:19.879Z,19.73
2023-05-03T14:06:46.885Z,19.75
2023-05-03T14:09:13.918Z,19.84
2023-05-03T14:11:40.885Z,19.93
2023-05-03T14:14:07.790Z,19.98
2023-05-03T14:19:04.177Z,20.35
2023-05-03T14:21:31.747Z,20.21
2023-05-03T14:23:58.538Z,20.36
2023-05-03T14:26:26.620Z,20.46
2023-05-03T14:28:53.313Z,20.49
2023-05-03T14:31:20.166Z,20.73
2023-05-03T14:33:46.884Z,20.71
2023-05-03T14:36:13.599Z,20.81
2023-05-03T14:38:40.264Z,21.00
2023-05-03T14:41:07.557Z,21.03
2023-05-03T14:43:34.357Z,21.31
2023-05-03T14:46:01.801Z,22.11
2023-05-03T14:48:28.663Z,23.32
2023-05-03T14:50:56.320Z,24.61
2023-05-03T14:53:23.400Z,25.93
2023-05-03T14:55:50.182Z,27.35
2023-05-03T14:58:16.965Z,28.50
2023-05-03T15:00:43.986Z,27.99
2023-05-03T15:03:12.145Z,29.00
2023-05-03T15:05:47.062Z,30.28
2023-05-03T15:08:15.964Z,30.77
2023-05-03T15:10:45.303Z,31.22
2023-05-03T15:13:13.498Z,31.20
2023-05-03T15:15:42.764Z,28.98
2023-05-03T15:18:09.999Z,28.04
2023-05-03T15:20:36.759Z,29.40
2023-05-03T15:23:04.650Z,30.58
2023-05-03T15:25:31.953Z,31.25
2023-05-03T15:28:00.619Z,31.59
2023-05-03T15:30:30.195Z,30.52
2023-05-03T15:32:57.105Z,27.97
2023-05-03T15:35:24.181Z,26.38
2023-05-03T15:37:50.812Z,25.86
2023-05-03T15:40:18.598Z,25.28
2023-05-03T15:42:45.482Z,24.32
2023-05-03T15:45:13.122Z,23.46
2023-05-03T15:47:40.067Z,23.21
2023-05-03T15:50:07.704Z,22.96
2023-05-03T15:52:34.981Z,22.71
2023-05-03T15:55:01.785Z,22.74
2023-05-03T15:57:31.880Z,22.52
2023-05-03T15:59:59.222Z,22.27
2023-05-03T16:02:26.277Z,21.64
2023-05-03T16:04:53.238Z,21.48
2023-05-03T16:07:20.172Z,21.59
2023-05-03T16:09:47.105Z,21.61
2023-05-03T16:12:13.746Z,21.59
2023-05-03T16:14:40.601Z,21.51
2023-05-03T16:17:09.787Z,21.55
2023-05-03T16:19:37.535Z,21.43
2023-05-03T16:22:05.050Z,21.37
2023-05-03T16:24:33.030Z,21.29
2023-05-03T16:26:59.758Z,21.26
2023-05-03T16:29:27.747Z,21.14
2023-05-03T16:31:55.384Z,21.17
2023-05-03T16:34:22.345Z,20.99
2023-05-03T16:36:50.682Z,20.87
2023-05-03T16:39:17.838Z,21.05
2023-05-03T16:41:44.577Z,20.78
2023-05-03T16:44:11.527Z,20.87
2023-05-03T16:46:40.092Z,20.98
2023-05-03T16:49:07.234Z,20.82
2023-05-03T16:51:34.034Z,20.73
2023-05-03T16:54:04.426Z,20.67
2023-05-03T16:56:32.141Z,20.58
2023-05-03T16:59:02.930Z,20.55
2023-05-03T17:01:29.643Z,20.49
2023-05-03T17:03:56.943Z,20.75
2023-05-03T17:06:23.687Z,20.63
2023-05-03T17:08:50.497Z,20.56
2023-05-03T17:11:17.217Z,20.49
2023-05-03T17:13:44.376Z,20.52
2023-05-03T17:16:15.074Z,20.40
2023-05-03T17:18:42.264Z,20.32
2023-05-03T17:21:09.934Z,20.37
2023-05-03T17:23:38.231Z,20.04
2023-05-03T17:26:08.281Z,20.40
2023-05-03T17:28:36.055Z,20.26
2023-05-03T17:31:03.376Z,20.11
2023-05-03T17:33:30.093Z,20.25
2023-05-03T17:35:56.867Z,19.93
2023-05-03T17:38:23.701Z,20.15
2023-05-03T17:40:50.702Z,19.84
2023-05-03T17:43:17.974Z,19.76
2023-05-03T17:45:47.241Z,19.84
2023-05-03T17:48:14.395Z,19.68
2023-05-03T17:50:43.025Z,19.62
2023-05-03T17:53:09.965Z,19.70
2023-05-03T17:55:38.316Z,19.73
2023-05-03T17:58:06.681Z,19.49
2023-05-03T18:00:33.889Z,19.48
2023-05-03T18:03:01.440Z,19.53
2023-05-03T18:05:28.346Z,19.34
2023-05-03T18:07:55.066Z,19.29
2023-05-03T18:10:22.176Z,19.35
2023-05-03T18:12:48.995Z,19.24
2023-05-03T18:15:16.246Z,19.24
2023-05-03T18:17:43.476Z,19.35
2023-05-03T18:20:10.808Z,19.21
2023-05-03T18:22:37.704Z,18.94
2023-05-03T18:25:07.406Z,19.14
2023-05-03T18:27:37.323Z,19.08
2023-05-03T18:30:06.615Z,19.15
2023-05-03T18:32:34.252Z,19.00
2023-05-03T18:35:01.309Z,18.84
2023-05-03T18:37:31.032Z,18.67
2023-05-03T18:39:57.803Z,18.77
2023-05-03T18:42:24.587Z,18.80
2023-05-03T18:44:51.963Z,18.63
2023-05-03T18:47:20.644Z,18.72
2023-05-03T18:49:52.376Z,18.62
2023-05-03T18:52:22.911Z,18.62
2023-05-03T18:54:49.765Z,18.60
2023-05-03T18:57:16.811Z,18.33
2023-05-03T18:59:56.588Z,18.37
2023-05-03T19:02:30.262Z,18.35
2023-05-03T19:04:57.301Z,18.23
2023-05-03T19:07:24.100Z,18.37
2023-05-03T19:09:55.140Z,18.39
2023-05-03T19:12:22.236Z,18.15
2023-05-03T19:14:49.183Z,18.09
2023-05-03T19:17:15.812Z,18.10
2023-05-03T19:19:42.531Z,18.12
2023-05-03T19:22:09.270Z,18.04
2023-05-03T19:24:36.132Z,18.08
2023-05-03T19:27:04.326Z,18.09
2023-05-03T19:29:31.019Z,17.93
2023-05-03T19:31:57.713Z,17.98
2023-05-03T19:34:24.406Z,18.01
2023-05-03T19:36:51.113Z,18.02
2023-05-03T19:39:18.012Z,17.98
2023-05-03T19:41:44.802Z,17.80
2023-05-03T19:44:11.976Z,17.82
2023-05-03T19:46:39.059Z,17.83
2023-05-03T19:49:06.268Z,17.73
2023-05-03T19:51:33.419Z,17.62
2023-05-03T19:54:03.499Z,17.60
2023-05-03T19:56:30.605Z,17.64
2023-05-03T19:58:57.684Z,17.60
2023-05-03T20:01:24.839Z,17.58
2023-05-03T20:03:53.552Z,17.64
2023-05-03T20:06:22.097Z,17.56
2023-05-03T20:08:50.903Z,17.46
2023-05-03T20:11:19.468Z,17.32
2023-05-03T20:13:46.727Z,17.42
2023-05-03T20:16:13.612Z,17.45
2023-05-03T20:18:41.777Z,17.42
2023-05-03T20:21:09.133Z,17.36
2023-05-03T20:23:35.894Z,17.43
2023-05-03T20:26:02.771Z,17.28
2023-05-03T20:28:31.781Z,17.39
2023-05-03T20:30:58.412Z,17.34
2023-05-03T20:33:25.141Z,17.20
2023-05-03T20:35:52.420Z,17.11
2023-05-03T20:38:20.166Z,17.28
2023-05-03T20:40:46.830Z,17.14
2023-05-03T20:43:13.915Z,17.19
2023-05-03T20:45:40.615Z,17.03
2023-05-03T20:48:07.924Z,17.15
2023-05-03T20:50:34.772Z,16.90
2023-05-03T20:53:01.486Z,16.70
2023-05-03T20:55:28.219Z,17.02
2023-05-03T20:57:54.827Z,17.04
2023-05-03T21:00:22.293Z,17.06
2023-05-03T21:02:53.779Z,16.94
2023-05-03T21:05:21.708Z,16.85
2023-05-03T21:07:48.711Z,16.97
2023-05-03T21:10:15.400Z,16.88
2023-05-03T21:12:42.195Z,16.88
2023-05-03T21:15:09.443Z,16.81
2023-05-03T21:17:36.118Z,16.77
2023-05-03T21:20:03.872Z,16.77
2023-05-03T21:22:31.150Z,16.77
2023-05-03T21:24:57.743Z,16.73
2023-05-03T21:27:24.453Z,16.69
2023-05-03T21:29:51.373Z,16.66
2023-05-03T21:32:18.078Z,16.65
2023-05-03T21:34:44.700Z,16.59
2023-05-03T21:37:11.489Z,16.64
2023-05-03T21:39:38.172Z,16.66
2023-05-03T21:42:04.802Z,16.54
2023-05-03T21:44:31.434Z,16.54
2023-05-03T21:46:58.230Z,16.51
2023-05-03T21:49:24.894Z,16.50
2023-05-03T21:51:51.541Z,16.29
2023-05-03T21:54:19.095Z,16.41
2023-05-03T21:56:45.773Z,16.35
2023-05-03T21:59:12.798Z,16.17
2023-05-03T22:01:39.532Z,16.42
2023-05-03T22:04:06.486Z,16.46
2023-05-03T22:06:33.180Z,16.38
2023-05-03T22:08:59.798Z,16.30
2023-05-03T22:11:26.511Z,16.35
2023-05-03T22:14:06.858Z,16.22
2023-05-03T22:16:35.155Z,16.16
2023-05-03T22:19:02.015Z,16.31
2023-05-03T22:21:28.764Z,16.24
2023-05-03T22:23:55.441Z,16.19
2023-05-03T22:26:22.408Z,16.00
2023-05-03T22:28:49.358Z,16.12
2023-05-03T22:31:16.171Z,15.99
2023-05-03T22:33:44.821Z,15.95
2023-05-03T22:36:12.343Z,16.09
2023-05-03T22:38:41.279Z,15.90
2023-05-03T22:41:09.526Z,15.96
2023-05-03T22:43:36.371Z,15.78
2023-05-03T22:46:03.240Z,15.86
2023-05-03T22:48:32.081Z,15.85
2023-05-03T22:50:58.858Z,15.79
2023-05-03T22:53:25.680Z,15.77
2023-05-03T22:55:56.346Z,15.71
2023-05-03T22:58:24.001Z,15.87
2023-05-03T23:00:50.707Z,15.89
2023-05-03T23:03:17.463Z,15.90
2023-05-03T23:05:44.243Z,15.88
2023-05-03T23:08:11.079Z,15.61
2023-05-03T23:10:37.678Z,15.69
2023-05-03T23:13:04.321Z,15.72
2023-05-03T23:15:31.113Z,15.46
2023-05-03T23:17:58.065Z,15.15
2023-05-03T23:20:24.789Z,14.67
2023-05-03T23:22:51.462Z,14.93
2023-05-03T23:25:18.216Z,14.96
2023-05-03T23:27:44.863Z,15.08
2023-05-03T23:30:13.443Z,15.27
2023-05-03T23:32:40.819Z,14.80
2023-05-03T23:35:08.315Z,14.89
2023-05-03T23:37:34.925Z,14.80
2023-05-03T23:40:01.992Z,14.83
2023-05-03T23:42:31.014Z,15.08
2023-05-03T23:44:57.786Z,14.85
2023-05-03T23:47:24.633Z,14.69
2023-05-03T23:49:51.402Z,14.66
2023-05-03T23:52:19.741Z,14.64
2023-05-03T23:54:46.492Z,14.79
2023-05-03T23:57:13.166Z,14.64
2023-05-03T23:59:39.780Z,14.66
